createdAt,value
2022-09-02T00:01:50.364Z,80.45
2022-09-02T00:04:26.520Z,80.12
2022-09-02T00:06:55.310Z,80.38
2022-09-02T00:09:26.460Z,79.93
2022-09-02T00:11:56.563Z,79.73
2022-09-02T00:14:35.495Z,78.79
2022-09-02T00:17:04.932Z,78.41
2022-09-02T00:19:33.891Z,78.70
2022-09-02T00:22:05.011Z,78.56
2022-09-02T00:24:33.331Z,78.56
2022-09-02T00:27:03.651Z,79.66
2022-09-02T00:29:33.731Z,80.57
2022-09-02T00:32:02.623Z,80.52
2022-09-02T00:34:33.893Z,80.91
2022-09-02T00:37:05.251Z,81.84
2022-09-02T00:39:33.634Z,81.70
2022-09-02T00:42:05.099Z,82.03
2022-09-02T00:44:34.336Z,81.49
2022-09-02T00:47:03.498Z,81.35
2022-09-02T00:49:35.332Z,83.11
2022-09-02T00:52:20.782Z,83.59
2022-09-02T00:55:02.611Z,84.20
2022-09-02T00:57:37.668Z,84.50
2022-09-02T01:00:18.310Z,84.34
2022-09-02T01:03:00.441Z,84.33
2022-09-02T01:05:45.148Z,83.17
2022-09-02T01:08:23.757Z,83.58
2022-09-02T01:10:55.940Z,83.71
2022-09-02T01:13:28.781Z,83.32
2022-09-02T01:16:02.869Z,82.72
2022-09-02T01:18:31.601Z,82.30
2022-09-02T01:21:03.317Z,82.03
2022-09-02T01:23:34.954Z,81.86
2022-09-02T01:26:05.251Z,82.37
2022-09-02T01:28:35.092Z,82.88
2022-09-02T01:31:04.371Z,82.70
2022-09-02T01:33:34.062Z,83.03
2022-09-02T01:36:04.360Z,82.64
2022-09-02T01:38:32.850Z,82.56
2022-09-02T01:41:01.259Z,82.93
2022-09-02T01:43:30.221Z,82.66
2022-09-02T01:46:01.951Z,83.01
2022-09-02T01:48:32.676Z,82.37
2022-09-02T01:51:04.157Z,81.46
2022-09-02T01:53:33.066Z,81.29
2022-09-02T01:56:04.036Z,81.18
2022-09-02T01:58:34.699Z,82.47
2022-09-02T02:01:04.313Z,82.80
2022-09-02T02:03:33.562Z,82.86
2022-09-02T02:06:03.159Z,82.37
2022-09-02T02:08:33.905Z,82.13
2022-09-02T02:11:04.375Z,81.88
2022-09-02T02:13:33.711Z,81.61
2022-09-02T02:16:03.787Z,81.06
2022-09-02T02:18:33.968Z,81.20
2022-09-02T02:21:02.047Z,80.63
2022-09-02T02:23:31.795Z,80.23
2022-09-02T02:26:05.409Z,80.10
2022-09-02T02:28:34.530Z,80.54
2022-09-02T02:31:04.543Z,80.50
2022-09-02T02:33:43.881Z,81.29
2022-09-02T02:36:12.301Z,80.61
2022-09-02T02:38:43.651Z,80.05
2022-09-02T02:41:14.948Z,80.45
2022-09-02T02:43:46.050Z,81.70
2022-09-02T02:46:15.768Z,81.44
2022-09-02T02:48:45.301Z,81.02
2022-09-02T02:51:12.629Z,80.01
2022-09-02T02:53:43.541Z,78.72
2022-09-02T02:56:13.923Z,78.51
2022-09-02T02:58:42.519Z,79.07
2022-09-02T03:01:13.725Z,79.11
2022-09-02T03:03:44.531Z,79.25
2022-09-02T03:06:15.218Z,78.80
2022-09-02T03:08:45.181Z,79.27
2022-09-02T03:11:21.181Z,79.39
2022-09-02T03:13:54.250Z,79.80
2022-09-02T03:16:21.930Z,79.76
2022-09-02T03:18:53.423Z,80.46
2022-09-02T03:21:24.850Z,81.56
2022-09-02T03:23:54.061Z,82.52
2022-09-02T03:26:31.810Z,82.55
2022-09-02T03:29:02.047Z,82.02
2022-09-02T03:31:29.493Z,82.38
2022-09-02T03:33:59.101Z,83.20
2022-09-02T03:36:35.111Z,83.54
2022-09-02T03:39:10.028Z,83.57
2022-09-02T03:41:43.653Z,83.69
2022-09-02T03:44:14.421Z,83.40
2022-09-02T03:46:44.121Z,83.75
2022-09-02T03:49:13.374Z,83.33
2022-09-02T03:51:45.146Z,82.34
2022-09-02T03:54:13.819Z,81.36
2022-09-02T03:56:45.079Z,80.86
2022-09-02T03:59:15.982Z,81.33
2022-09-02T04:01:44.610Z,82.00
2022-09-02T04:04:14.052Z,82.56
2022-09-02T04:06:44.971Z,81.99
2022-09-02T04:09:13.750Z,81.45
2022-09-02T04:11:46.722Z,82.23
2022-09-02T04:14:14.030Z,82.17
2022-09-02T04:16:45.170Z,81.89
2022-09-02T04:19:13.973Z,82.38
2022-09-02T04:21:45.364Z,82.73
2022-09-02T04:24:13.860Z,83.09
2022-09-02T04:26:49.259Z,83.77
2022-09-02T04:29:18.903Z,84.95
2022-09-02T04:31:50.556Z,85.48
2022-09-02T04:34:19.787Z,86.13
2022-09-02T04:36:53.031Z,86.49
2022-09-02T04:39:23.356Z,86.53
2022-09-02T04:41:54.291Z,87.02
2022-09-02T04:44:24.391Z,87.60
2022-09-02T04:46:53.311Z,87.98
2022-09-02T04:49:22.493Z,88.01
2022-09-02T04:51:57.043Z,88.06
2022-09-02T04:54:29.069Z,87.87
2022-09-02T04:57:00.088Z,87.73
2022-09-02T04:59:30.468Z,87.99
2022-09-02T05:02:09.387Z,88.06
2022-09-02T05:04:37.970Z,88.44
2022-09-02T05:07:12.436Z,88.95
2022-09-02T05:09:45.247Z,88.83
2022-09-02T05:12:14.938Z,87.92
2022-09-02T05:15:02.143Z,88.72
2022-09-02T05:17:36.016Z,88.96
2022-09-02T05:20:11.255Z,88.91
2022-09-02T05:22:41.551Z,88.75
2022-09-02T05:25:13.954Z,88.52
2022-09-02T05:27:44.295Z,88.71
2022-09-02T05:30:13.021Z,88.35
2022-09-02T05:32:52.220Z,87.82
2022-09-02T05:35:19.412Z,87.65
2022-09-02T05:37:49.261Z,87.44
2022-09-02T05:40:16.473Z,87.31
2022-09-02T05:42:52.584Z,85.56
2022-09-02T05:45:20.473Z,84.79
2022-09-02T05:47:50.762Z,85.20
2022-09-02T05:50:22.293Z,85.26
2022-09-02T05:52:53.267Z,84.49
2022-09-02T05:55:26.891Z,84.42
2022-09-02T05:57:55.501Z,84.10
2022-09-02T06:00:26.352Z,84.15
2022-09-02T06:03:04.030Z,83.36
2022-09-02T06:05:39.065Z,82.93
2022-09-02T06:08:14.905Z,80.77
2022-09-02T06:10:45.489Z,81.36
2022-09-02T06:13:22.485Z,81.89
2022-09-02T06:15:53.041Z,81.79
2022-09-02T06:18:27.288Z,79.83
2022-09-02T06:20:59.108Z,78.80
2022-09-02T06:23:39.171Z,78.59
2022-09-02T06:26:12.535Z,77.15
2022-09-02T06:28:41.298Z,77.61
2022-09-02T06:31:19.182Z,78.87
2022-09-02T06:33:52.852Z,77.62
2022-09-02T06:36:28.285Z,77.76
2022-09-02T06:39:00.700Z,76.58
2022-09-02T06:41:33.741Z,76.49
2022-09-02T06:44:09.253Z,75.08
2022-09-02T06:46:45.011Z,74.20
2022-09-02T06:49:19.112Z,72.67
2022-09-02T06:51:53.815Z,72.67
2022-09-02T06:54:25.973Z,72.24
2022-09-02T06:57:05.285Z,72.93
2022-09-02T06:59:33.817Z,73.98
2022-09-02T07:02:04.172Z,73.94
2022-09-02T07:04:57.176Z,74.46
2022-09-02T07:07:27.151Z,73.01
2022-09-02T07:10:09.467Z,72.56
2022-09-02T07:12:44.481Z,73.21
2022-09-02T07:15:19.431Z,73.72
2022-09-02T07:17:51.161Z,74.26
2022-09-02T07:20:38.436Z,74.98
2022-09-02T07:23:18.863Z,75.09
2022-09-02T07:25:50.249Z,72.87
2022-09-02T07:28:22.098Z,72.14
2022-09-02T07:30:58.971Z,70.75
2022-09-02T07:33:30.715Z,68.72
2022-09-02T07:36:00.819Z,67.76
2022-09-02T07:38:31.190Z,68.71
2022-09-02T07:41:03.655Z,66.20
2022-09-02T07:43:35.417Z,67.81
2022-09-02T07:46:06.750Z,63.67
2022-09-02T07:48:35.536Z,65.28
2022-09-02T07:51:05.183Z,64.45
2022-09-02T07:53:36.252Z,66.05
2022-09-02T07:56:05.971Z,62.34
2022-09-02T07:58:34.772Z,61.65
2022-09-02T08:01:04.206Z,62.28
2022-09-02T08:03:33.936Z,61.43
2022-09-02T08:06:03.304Z,59.95
2022-09-02T08:08:34.393Z,60.47
2022-09-02T08:11:04.324Z,60.21
2022-09-02T08:13:34.955Z,58.68
2022-09-02T08:16:05.205Z,58.74
2022-09-02T08:18:44.081Z,59.40
2022-09-02T08:21:11.092Z,56.38
2022-09-02T08:23:39.753Z,57.51
2022-09-02T08:26:09.925Z,56.67
2022-09-02T08:28:39.608Z,56.94
2022-09-02T08:31:12.581Z,57.33
2022-09-02T08:33:42.885Z,55.27
2022-09-02T08:36:13.333Z,54.55
2022-09-02T08:38:43.085Z,53.76
2022-09-02T08:41:24.346Z,55.05
2022-09-02T08:44:00.180Z,53.80
2022-09-02T08:46:43.495Z,53.92
2022-09-02T08:49:28.663Z,54.72
2022-09-02T08:52:01.008Z,54.24
2022-09-02T08:54:44.177Z,53.19
2022-09-02T08:57:12.853Z,53.24
2022-09-02T08:59:43.258Z,52.67
2022-09-02T09:02:30.873Z,51.27
2022-09-02T09:05:25.965Z,49.85
2022-09-02T09:08:24.202Z,51.00
2022-09-02T09:11:05.242Z,51.79
2022-09-02T09:13:58.996Z,48.07
2022-09-02T09:16:54.080Z,49.35
2022-09-02T09:19:43.080Z,49.23
2022-09-02T09:22:15.951Z,46.81
2022-09-02T09:24:54.125Z,47.06
2022-09-02T09:27:26.430Z,49.11
2022-09-02T09:29:56.620Z,47.95
2022-09-02T09:32:34.887Z,48.12
2022-09-02T09:35:14.573Z,49.74
2022-09-02T09:37:46.808Z,47.35
2022-09-02T09:40:27.985Z,46.61
2022-09-02T09:43:14.685Z,45.90
2022-09-02T09:45:54.295Z,43.50
2022-09-02T09:48:51.151Z,45.24
2022-09-02T09:51:19.993Z,44.35
2022-09-02T09:53:54.371Z,44.59
2022-09-02T09:56:44.832Z,43.11
2022-09-02T09:59:58.363Z,44.49
2022-09-02T10:02:31.131Z,43.47
2022-09-02T10:05:39.001Z,46.69
2022-09-02T10:08:52.990Z,41.64
2022-09-02T10:11:52.860Z,44.53
2022-09-02T10:14:29.617Z,43.71
2022-09-02T10:17:07.530Z,42.94
2022-09-02T10:19:56.391Z,41.76
2022-09-02T10:23:05.000Z,44.17
2022-09-02T10:25:53.058Z,41.13
2022-09-02T10:28:58.854Z,39.18
2022-09-02T10:31:54.495Z,44.46
2022-09-02T10:34:57.870Z,40.57
2022-09-02T10:37:33.060Z,38.34
2022-09-02T10:40:21.812Z,39.35
2022-09-02T10:43:20.165Z,39.25
2022-09-02T10:45:57.257Z,38.03
2022-09-02T10:48:47.120Z,37.46
2022-09-02T10:51:44.372Z,38.84
2022-09-02T10:54:55.222Z,36.64
2022-09-02T10:57:45.622Z,37.28
2022-09-02T11:00:25.157Z,37.12
2022-09-02T11:03:36.116Z,37.17
2022-09-02T11:06:15.711Z,36.97
2022-09-02T11:08:56.789Z,37.18
2022-09-02T11:11:38.461Z,37.89
2022-09-02T11:14:48.551Z,38.60
2022-09-02T11:17:16.812Z,39.20
2022-09-02T11:20:23.001Z,36.45
2022-09-02T11:22:58.762Z,35.23
2022-09-02T11:25:50.712Z,36.09
2022-09-02T11:28:24.181Z,37.40
2022-09-02T11:31:04.625Z,36.61
2022-09-02T11:34:26.583Z,37.00
2022-09-02T11:36:56.835Z,35.78
2022-09-02T11:40:11.207Z,35.85
2022-09-02T11:43:13.099Z,35.87
2022-09-02T11:46:13.778Z,36.28
2022-09-02T11:49:24.262Z,36.90
2022-09-02T11:52:25.636Z,35.37
2022-09-02T11:55:38.735Z,37.57
2022-09-02T11:58:07.182Z,37.58
2022-09-02T12:01:07.976Z,36.95
2022-09-02T12:07:10.254Z,37.55
2022-09-02T12:10:06.506Z,36.16
2022-09-02T12:12:39.247Z,35.69
2022-09-02T12:15:07.071Z,36.22
2022-09-02T12:17:53.392Z,37.54
2022-09-02T12:20:46.960Z,37.50
2022-09-02T12:23:56.827Z,37.46
2022-09-02T12:26:39.533Z,38.09
2022-09-02T12:29:35.070Z,37.64
2022-09-02T12:32:03.791Z,37.46
2022-09-02T12:34:33.893Z,36.66
2022-09-02T12:37:03.832Z,37.59
2022-09-02T12:39:39.490Z,38.53
2022-09-02T12:42:26.449Z,35.68
2022-09-02T12:45:05.480Z,33.96
2022-09-02T12:47:53.072Z,34.68
2022-09-02T12:50:58.361Z,34.58
2022-09-02T12:53:44.330Z,35.44
2022-09-02T12:56:25.160Z,36.56
2022-09-02T12:59:02.485Z,37.23
2022-09-02T13:02:15.021Z,37.60
2022-09-02T13:05:09.085Z,38.12
2022-09-02T13:08:13.892Z,37.67
2022-09-02T13:11:19.220Z,37.82
2022-09-02T13:14:19.548Z,38.43
2022-09-02T13:17:36.234Z,37.69
2022-09-02T13:20:38.871Z,39.30
2022-09-02T13:23:46.120Z,39.86
2022-09-02T13:27:11.751Z,39.61
2022-09-02T13:30:11.541Z,40.05
2022-09-02T13:32:42.529Z,39.81
2022-09-02T13:35:26.230Z,38.68
2022-09-02T13:38:05.257Z,39.59
2022-09-02T13:40:35.783Z,39.59
2022-09-02T13:43:19.269Z,39.20
2022-09-02T13:45:50.346Z,38.72
2022-09-02T13:48:29.600Z,38.91
2022-09-02T13:51:03.813Z,39.25
2022-09-02T13:54:18.791Z,40.63
2022-09-02T13:56:40.209Z,40.99
2022-09-02T13:59:10.667Z,40.17
2022-09-02T14:01:40.488Z,41.13
2022-09-02T14:04:15.719Z,41.22
2022-09-02T14:06:49.054Z,40.77
2022-09-02T14:09:33.468Z,40.02
2022-09-02T14:12:04.817Z,39.72
2022-09-02T14:14:34.652Z,40.39
2022-09-02T14:17:35.942Z,39.96
2022-09-02T14:20:22.655Z,39.08
2022-09-02T14:22:59.698Z,40.73
2022-09-02T14:25:39.622Z,41.10
2022-09-02T14:28:19.449Z,41.12
2022-09-02T14:30:59.046Z,40.35
2022-09-02T14:33:45.032Z,39.99
2022-09-02T14:36:33.965Z,40.56
2022-09-02T14:39:17.113Z,40.57
2022-09-02T14:41:57.861Z,40.95
2022-09-02T14:44:36.057Z,40.92
2022-09-02T14:47:13.448Z,39.47
2022-09-02T14:49:56.270Z,39.78
2022-09-02T14:52:29.635Z,39.26
2022-09-02T14:54:58.610Z,39.78
2022-09-02T14:57:33.060Z,40.68
2022-09-02T15:00:07.918Z,40.87
2022-09-02T15:02:39.639Z,41.60
2022-09-02T15:05:11.176Z,42.03
2022-09-02T15:07:44.260Z,42.43
2022-09-02T15:10:11.313Z,43.15
2022-09-02T15:12:45.220Z,41.83
2022-09-02T15:15:13.577Z,41.61
2022-09-02T15:17:43.004Z,40.80
2022-09-02T15:20:11.433Z,41.97
2022-09-02T15:22:38.829Z,42.14
2022-09-02T15:25:17.308Z,41.45
2022-09-02T15:27:45.922Z,41.58
2022-09-02T15:30:14.816Z,42.40
2022-09-02T15:32:45.886Z,41.78
2022-09-02T15:35:14.334Z,42.31
2022-09-02T15:37:44.803Z,40.76
2022-09-02T15:40:13.372Z,40.98
2022-09-02T15:42:43.401Z,42.25
2022-09-02T15:45:12.084Z,41.77
2022-09-02T15:47:39.826Z,43.01
2022-09-02T15:50:10.252Z,43.50
2022-09-02T15:52:41.159Z,43.88
2022-09-02T15:55:09.535Z,44.41
2022-09-02T15:57:36.805Z,43.64
2022-09-02T16:00:06.125Z,44.13
2022-09-02T16:02:45.408Z,43.93
2022-09-02T16:05:13.862Z,43.84
2022-09-02T16:07:42.777Z,43.53
2022-09-02T16:10:11.513Z,43.46
2022-09-02T16:12:38.568Z,43.46
2022-09-02T16:15:06.439Z,43.79
2022-09-02T16:17:34.719Z,43.38
2022-09-02T16:20:02.952Z,43.35
2022-09-02T16:22:35.302Z,43.31
2022-09-02T16:25:03.642Z,43.52
2022-09-02T16:27:50.394Z,43.96
2022-09-02T16:30:20.290Z,44.10
2022-09-02T16:32:53.094Z,44.24
2022-09-02T16:35:21.065Z,44.37
2022-09-02T16:37:49.721Z,44.41
2022-09-02T16:40:24.648Z,44.61
2022-09-02T16:42:54.904Z,45.22
2022-09-02T16:45:23.394Z,45.34
2022-09-02T16:47:50.668Z,45.17
2022-09-02T16:50:18.502Z,44.96
2022-09-02T16:52:45.627Z,45.01
2022-09-02T16:55:20.417Z,45.56
2022-09-02T16:57:50.517Z,45.89
2022-09-02T17:00:17.618Z,45.51
2022-09-02T17:02:45.143Z,46.22
2022-09-02T17:05:19.726Z,46.93
2022-09-02T17:07:50.360Z,46.38
2022-09-02T17:10:17.624Z,46.44
2022-09-02T17:12:45.953Z,46.50
2022-09-02T17:15:13.323Z,47.08
2022-09-02T17:17:42.581Z,47.59
2022-09-02T17:20:13.318Z,48.09
2022-09-02T17:22:44.201Z,47.80
2022-09-02T17:25:13.139Z,48.51
2022-09-02T17:27:43.149Z,48.18
2022-09-02T17:30:14.891Z,48.88
2022-09-02T17:32:42.754Z,48.87
2022-09-02T17:35:12.438Z,48.97
2022-09-02T17:37:44.857Z,49.47
2022-09-02T17:40:33.473Z,49.69
2022-09-02T17:43:01.141Z,49.77
2022-09-02T17:45:40.897Z,50.35
2022-09-02T17:48:35.318Z,50.22
2022-09-02T17:50:59.754Z,50.30
2022-09-02T17:53:29.027Z,50.97
2022-09-02T17:56:26.711Z,51.03
2022-09-02T17:59:06.411Z,51.57
2022-09-02T18:01:38.170Z,51.67
2022-09-02T18:04:29.244Z,51.62
2022-09-02T18:07:13.924Z,52.07
2022-09-02T18:09:41.128Z,52.27
2022-09-02T18:12:09.805Z,52.73
2022-09-02T18:14:46.004Z,53.65
2022-09-02T18:17:47.157Z,53.88
2022-09-02T18:20:30.611Z,53.98
2022-09-02T18:23:19.523Z,54.66
2022-09-02T18:26:19.937Z,54.76
2022-09-02T18:29:15.088Z,55.20
2022-09-02T18:32:14.737Z,55.93
2022-09-02T18:35:04.493Z,56.71
2022-09-02T18:37:51.632Z,57.32
2022-09-02T18:40:59.226Z,57.41
2022-09-02T18:43:39.726Z,57.19
2022-09-02T18:46:12.387Z,57.56
2022-09-02T18:48:40.063Z,57.41
2022-09-02T18:51:41.127Z,57.65
2022-09-02T18:54:34.962Z,58.05
2022-09-02T18:57:08.615Z,57.62
2022-09-02T19:00:09.849Z,58.21
2022-09-02T19:03:05.861Z,58.16
2022-09-02T19:05:37.068Z,58.38
2022-09-02T19:08:26.654Z,58.64
2022-09-02T19:11:04.899Z,58.54
2022-09-02T19:14:16.785Z,58.79
2022-09-02T19:16:45.165Z,58.41
2022-09-02T19:19:14.174Z,58.66
2022-09-02T19:21:54.697Z,58.99
2022-09-02T19:24:32.790Z,59.14
2022-09-02T19:27:22.094Z,59.32
2022-09-02T19:30:03.236Z,59.36
2022-09-02T19:32:34.776Z,59.69
2022-09-02T19:35:06.540Z,59.72
2022-09-02T19:37:44.205Z,60.25
2022-09-02T19:40:15.086Z,60.46
2022-09-02T19:42:45.209Z,61.08
2022-09-02T19:45:16.373Z,61.33
2022-09-02T19:48:05.970Z,61.39
2022-09-02T19:50:43.804Z,61.18
2022-09-02T19:53:21.162Z,61.42
2022-09-02T19:55:48.950Z,61.79
2022-09-02T19:58:16.243Z,61.80
2022-09-02T20:00:44.836Z,62.77
2022-09-02T20:03:13.406Z,63.27
2022-09-02T20:05:41.142Z,63.40
2022-09-02T20:08:18.105Z,64.08
2022-09-02T20:10:56.040Z,64.53
2022-09-02T20:13:30.744Z,64.31
2022-09-02T20:16:00.240Z,64.57
2022-09-02T20:18:29.802Z,64.80
2022-09-02T20:20:59.955Z,65.13
2022-09-02T20:23:28.822Z,65.40
2022-09-02T20:26:36.039Z,65.82
2022-09-02T20:29:37.801Z,66.04
2022-09-02T20:32:46.151Z,66.15
2022-09-02T20:35:49.990Z,67.43
2022-09-02T20:38:44.661Z,67.64
2022-09-02T20:41:42.592Z,67.94
2022-09-02T20:44:42.770Z,68.33
2022-09-02T20:47:53.880Z,68.59
2022-09-02T20:50:48.477Z,68.75
2022-09-02T20:53:45.581Z,68.83
2022-09-02T20:56:58.185Z,69.28
2022-09-02T21:00:04.239Z,69.56
2022-09-02T21:02:46.445Z,69.20
2022-09-02T21:05:22.743Z,69.13
2022-09-02T21:08:05.876Z,69.37
2022-09-02T21:10:46.152Z,69.91
2022-09-02T21:13:38.826Z,69.91
2022-09-02T21:16:19.774Z,70.05
2022-09-02T21:19:45.037Z,70.64
2022-09-02T21:22:45.314Z,70.30
2022-09-02T21:25:52.842Z,70.33
2022-09-02T21:28:26.211Z,70.12
2022-09-02T21:31:05.734Z,69.85
2022-09-02T21:33:37.914Z,70.25
2022-09-02T21:36:05.761Z,69.73
2022-09-02T21:38:45.701Z,68.97
2022-09-02T21:41:45.643Z,68.80
2022-09-02T21:44:49.636Z,69.87
2022-09-02T21:47:49.415Z,70.66
2022-09-02T21:50:50.638Z,69.90
2022-09-02T21:53:56.120Z,70.05
2022-09-02T21:56:50.708Z,71.03
2022-09-02T21:59:44.454Z,71.68
2022-09-02T22:02:25.958Z,72.20
2022-09-02T22:05:12.247Z,72.77
2022-09-02T22:08:03.280Z,72.90
2022-09-02T22:10:45.701Z,72.12
2022-09-02T22:13:14.520Z,72.49
2022-09-02T22:15:59.599Z,71.58
2022-09-02T22:19:00.842Z,71.87
2022-09-02T22:21:50.606Z,72.62
2022-09-02T22:24:29.286Z,73.04
2022-09-02T22:27:06.564Z,73.67
2022-09-02T22:30:05.370Z,73.38
2022-09-02T22:32:40.362Z,72.92
2022-09-02T22:35:34.449Z,72.87
2022-09-02T22:38:28.921Z,74.07
2022-09-02T22:41:26.628Z,73.66
2022-09-02T22:44:15.636Z,73.89
2022-09-02T22:47:41.117Z,74.31
2022-09-02T22:50:32.523Z,73.66
2022-09-02T22:53:01.223Z,73.72
2022-09-02T22:55:51.566Z,73.24
2022-09-02T22:58:59.962Z,73.64
2022-09-02T23:02:10.230Z,73.47
2022-09-02T23:05:06.931Z,72.88
2022-09-02T23:07:35.262Z,72.54
2022-09-02T23:10:11.552Z,73.08
2022-09-02T23:12:46.672Z,73.17
2022-09-02T23:15:41.390Z,74.41
2022-09-02T23:18:30.254Z,75.03
2022-09-02T23:21:17.221Z,75.68
2022-09-02T23:24:20.114Z,75.36
2022-09-02T23:27:23.406Z,76.20
2022-09-02T23:29:55.465Z,76.27
2022-09-02T23:33:03.991Z,75.76
2022-09-02T23:35:51.316Z,75.37
2022-09-02T23:38:43.742Z,74.37
2022-09-02T23:41:14.059Z,74.83
2022-09-02T23:43:42.661Z,75.68
2022-09-02T23:46:32.675Z,75.83
2022-09-02T23:49:24.996Z,75.21
2022-09-02T23:52:21.563Z,75.99
2022-09-02T23:55:09.751Z,75.96
2022-09-02T23:57:51.603Z,75.55
